createdAt,value
2023-04-30T00:00:53.082Z,5682.00
2023-04-30T00:01:53.153Z,5840.00
2023-04-30T00:02:53.106Z,5845.00
2023-04-30T00:03:53.127Z,5990.00
2023-04-30T00:04:53.153Z,5698.00
2023-04-30T00:05:53.184Z,5697.00
2023-04-30T00:06:53.263Z,5761.00
2023-04-30T00:07:53.279Z,5729.00
2023-04-30T00:08:53.237Z,5720.00
2023-04-30T00:09:53.652Z,5803.00
2023-04-30T00:10:53.293Z,5635.00
2023-04-30T00:11:53.317Z,5590.00
2023-04-30T00:12:53.303Z,5423.00
2023-04-30T00:13:53.335Z,5490.00
2023-04-30T00:14:53.392Z,5412.00
2023-04-30T00:15:53.405Z,5412.00
2023-04-30T00:16:53.443Z,5434.00
2023-04-30T00:17:53.495Z,5448.00
2023-04-30T00:18:53.530Z,5657.00
2023-04-30T00:19:53.764Z,5746.00
2023-04-30T00:20:53.540Z,5781.00
2023-04-30T00:21:53.639Z,5849.00
2023-04-30T00:22:53.650Z,5793.00
2023-04-30T00:23:53.663Z,5644.00
2023-04-30T00:24:53.735Z,5520.00
2023-04-30T00:25:53.755Z,5487.00
2023-04-30T00:26:53.763Z,5532.00
2023-04-30T00:27:53.800Z,5456.00
2023-04-30T00:28:53.783Z,5401.00
2023-04-30T00:29:54.081Z,5412.00
2023-04-30T00:30:53.866Z,5375.00
2023-04-30T00:31:53.886Z,5433.00
2023-04-30T00:32:53.904Z,5520.00
2023-04-30T00:33:53.917Z,5457.00
2023-04-30T00:34:53.984Z,5540.00
2023-04-30T00:35:54.001Z,5605.00
2023-04-30T00:36:54.013Z,5582.00
2023-04-30T00:37:54.089Z,5565.00
2023-04-30T00:38:54.071Z,5660.00
2023-04-30T00:39:54.382Z,5502.00
2023-04-30T00:40:54.074Z,5722.00
2023-04-30T00:41:54.096Z,5503.00
2023-04-30T00:42:54.158Z,5444.00
2023-04-30T00:43:54.244Z,5311.00
2023-04-30T00:44:54.205Z,5305.00
2023-04-30T00:45:54.269Z,5370.00
2023-04-30T00:46:54.256Z,5346.00
2023-04-30T00:47:54.340Z,5386.00
2023-04-30T00:48:54.345Z,5469.00
2023-04-30T00:49:54.572Z,5526.00
2023-04-30T00:50:54.454Z,5470.00
2023-04-30T00:51:54.520Z,5423.00
2023-04-30T00:52:54.576Z,5463.00
2023-04-30T00:53:54.600Z,5447.00
2023-04-30T00:54:54.625Z,5556.00
2023-04-30T00:55:54.670Z,5684.00
2023-04-30T00:56:54.681Z,5675.00
2023-04-30T00:57:54.715Z,5791.00
2023-04-30T00:58:54.755Z,5711.00
2023-04-30T00:59:55.022Z,5654.00
2023-04-30T01:00:54.863Z,5731.00
2023-04-30T01:01:54.872Z,5615.00
2023-04-30T01:02:54.971Z,5768.00
2023-04-30T01:03:54.885Z,5625.00
2023-04-30T01:04:54.908Z,5553.00
2023-04-30T01:05:54.968Z,5596.00
2023-04-30T01:06:55.005Z,5480.00
2023-04-30T01:07:55.000Z,5443.00
2023-04-30T01:08:55.052Z,5292.00
2023-04-30T01:09:55.363Z,5252.00
2023-04-30T01:10:55.120Z,5311.00
2023-04-30T01:11:55.154Z,5226.00
2023-04-30T01:12:55.206Z,5382.00
2023-04-30T01:13:55.234Z,5352.00
2023-04-30T01:14:55.229Z,5680.00
2023-04-30T01:15:55.290Z,5175.00
2023-04-30T01:16:55.305Z,5293.00
2023-04-30T01:17:55.436Z,5184.00
2023-04-30T01:18:55.488Z,5280.00
2023-04-30T01:19:55.905Z,5224.00
2023-04-30T01:20:55.490Z,5220.00
2023-04-30T01:21:55.527Z,5219.00
2023-04-30T01:22:55.603Z,5088.00
2023-04-30T01:23:55.596Z,5075.00
2023-04-30T01:24:55.673Z,5052.00
2023-04-30T01:25:55.694Z,5110.00
2023-04-30T01:26:55.705Z,5202.00
2023-04-30T01:27:55.746Z,5088.00
2023-04-30T01:28:55.823Z,5202.00
2023-04-30T01:29:56.136Z,5348.00
2023-04-30T01:30:55.825Z,5260.00
2023-04-30T01:31:55.837Z,5326.00
2023-04-30T01:32:55.960Z,5166.00
2023-04-30T01:33:55.908Z,5140.00
2023-04-30T01:34:55.917Z,5191.00
2023-04-30T01:35:55.935Z,5260.00
2023-04-30T01:36:56.006Z,5185.00
2023-04-30T01:37:56.011Z,5301.00
2023-04-30T01:38:56.057Z,5448.00
2023-04-30T01:39:56.533Z,5298.00
2023-04-30T01:40:56.064Z,5330.00
2023-04-30T01:41:56.133Z,5267.00
2023-04-30T01:42:56.122Z,5386.00
2023-04-30T01:43:56.131Z,5296.00
2023-04-30T01:44:56.180Z,5221.00
2023-04-30T01:45:56.190Z,5139.00
2023-04-30T01:46:56.175Z,5375.00
2023-04-30T01:47:56.253Z,5360.00
2023-04-30T01:48:56.227Z,5082.00
2023-04-30T01:49:56.521Z,5091.00
2023-04-30T01:50:56.286Z,5170.00
2023-04-30T01:51:56.305Z,5168.00
2023-04-30T01:52:56.389Z,5419.00
2023-04-30T01:53:56.414Z,5228.00
2023-04-30T01:54:56.447Z,5352.00
2023-04-30T01:55:56.506Z,5407.00
2023-04-30T01:56:56.498Z,5261.00
2023-04-30T01:57:56.522Z,5246.00
2023-04-30T01:58:56.551Z,5289.00
2023-04-30T01:59:56.778Z,5226.00
2023-04-30T02:00:56.577Z,5189.00
2023-04-30T02:01:56.645Z,5281.00
2023-04-30T02:02:56.680Z,5281.00
2023-04-30T02:03:56.775Z,5316.00
2023-04-30T02:04:56.700Z,5298.00
2023-04-30T02:05:56.805Z,5239.00
2023-04-30T02:06:56.800Z,5184.00
2023-04-30T02:07:56.768Z,5215.00
2023-04-30T02:08:56.810Z,5295.00
2023-04-30T02:09:56.872Z,5373.00
2023-04-30T02:10:56.888Z,5248.00
2023-04-30T02:11:56.893Z,5341.00
2023-04-30T02:12:56.949Z,5344.00
2023-04-30T02:13:56.914Z,5530.00
2023-04-30T02:14:56.970Z,5446.00
2023-04-30T02:15:57.013Z,5503.00
2023-04-30T02:16:56.989Z,5381.00
2023-04-30T02:17:57.025Z,5419.00
2023-04-30T02:18:57.016Z,5373.00
2023-04-30T02:19:57.064Z,5357.00
2023-04-30T02:20:57.011Z,5288.00
2023-04-30T02:21:57.069Z,5057.00
2023-04-30T02:22:57.094Z,5131.00
2023-04-30T02:23:57.134Z,5239.00
2023-04-30T02:24:57.173Z,5085.00
2023-04-30T02:25:57.177Z,5266.00
2023-04-30T02:26:57.169Z,5010.00
2023-04-30T02:27:57.233Z,4989.00
2023-04-30T02:28:57.279Z,5230.00
2023-04-30T02:29:57.285Z,5083.00
2023-04-30T02:30:57.325Z,4941.00
2023-04-30T02:31:57.510Z,4961.00
2023-04-30T02:32:57.476Z,5013.00
2023-04-30T02:33:57.452Z,4913.00
2023-04-30T02:34:57.525Z,4952.00
2023-04-30T02:35:57.496Z,5015.00
2023-04-30T02:36:57.532Z,5076.00
2023-04-30T02:37:57.621Z,5120.00
2023-04-30T02:38:57.645Z,4922.00
2023-04-30T02:39:57.908Z,4980.00
2023-04-30T02:40:57.700Z,4925.00
2023-04-30T02:41:57.766Z,5031.00
2023-04-30T02:42:57.759Z,5019.00
2023-04-30T02:43:57.787Z,5038.00
2023-04-30T02:44:57.863Z,5055.00
2023-04-30T02:45:57.951Z,5090.00
2023-04-30T02:46:57.911Z,4919.00
2023-04-30T02:47:58.072Z,4917.00
2023-04-30T02:48:58.047Z,4889.00
2023-04-30T02:49:58.103Z,5066.00
2023-04-30T02:50:58.106Z,4925.00
2023-04-30T02:51:58.182Z,4933.00
2023-04-30T02:52:58.232Z,4978.00
2023-04-30T02:53:58.267Z,5126.00
2023-04-30T02:54:58.312Z,4982.00
2023-04-30T02:55:58.339Z,4942.00
2023-04-30T02:56:58.332Z,4871.00
2023-04-30T02:57:58.376Z,4808.00
2023-04-30T02:58:58.399Z,4818.00
2023-04-30T02:59:58.429Z,4875.00
2023-04-30T03:00:58.516Z,4856.00
2023-04-30T03:01:58.467Z,4880.00
2023-04-30T03:02:58.621Z,4854.00
2023-04-30T03:03:58.601Z,4904.00
2023-04-30T03:04:58.588Z,4921.00
2023-04-30T03:05:58.601Z,4923.00
2023-04-30T03:06:58.605Z,4910.00
2023-04-30T03:07:58.609Z,4971.00
2023-04-30T03:08:58.628Z,4911.00
2023-04-30T03:09:58.686Z,4700.00
2023-04-30T03:10:58.748Z,4866.00
2023-04-30T03:11:58.799Z,4858.00
2023-04-30T03:12:58.756Z,4871.00
2023-04-30T03:13:58.737Z,4871.00
2023-04-30T03:14:58.773Z,4786.00
2023-04-30T03:15:58.800Z,4860.00
2023-04-30T03:16:58.839Z,4795.00
2023-04-30T03:17:58.935Z,4799.00
2023-04-30T03:18:58.896Z,4955.00
2023-04-30T03:19:58.967Z,5090.00
2023-04-30T03:20:58.906Z,5085.00
2023-04-30T03:21:58.933Z,4867.00
2023-04-30T03:22:58.979Z,4792.00
2023-04-30T03:23:59.030Z,4738.00
2023-04-30T03:24:59.116Z,4748.00
2023-04-30T03:25:59.157Z,4755.00
2023-04-30T03:26:59.163Z,4721.00
2023-04-30T03:27:59.204Z,4682.00
2023-04-30T03:28:59.228Z,4769.00
2023-04-30T03:29:59.292Z,5162.00
2023-04-30T03:30:59.258Z,5183.00
2023-04-30T03:31:59.373Z,5227.00
2023-04-30T03:32:59.386Z,4974.00
2023-04-30T03:33:59.409Z,4873.00
2023-04-30T03:34:59.367Z,4797.00
2023-04-30T03:35:59.372Z,4823.00
2023-04-30T03:36:59.383Z,4826.00
2023-04-30T03:37:59.459Z,4723.00
2023-04-30T03:38:59.469Z,4734.00
2023-04-30T03:39:59.513Z,4536.00
2023-04-30T03:40:59.542Z,4626.00
2023-04-30T03:41:59.646Z,4665.00
2023-04-30T03:42:59.615Z,4752.00
2023-04-30T03:43:59.582Z,4855.00
2023-04-30T03:44:59.653Z,4871.00
2023-04-30T03:45:59.656Z,4666.00
2023-04-30T03:46:59.663Z,4662.00
2023-04-30T03:47:59.697Z,4702.00
2023-04-30T03:48:59.668Z,4520.00
2023-04-30T03:49:59.709Z,4556.00
2023-04-30T03:50:59.731Z,4534.00
2023-04-30T03:51:59.733Z,4605.00
2023-04-30T03:52:59.752Z,4591.00
2023-04-30T03:53:59.805Z,4555.00
2023-04-30T03:54:59.829Z,4616.00
2023-04-30T03:55:59.827Z,4810.00
2023-04-30T03:56:59.876Z,4719.00
2023-04-30T03:57:59.877Z,4737.00
2023-04-30T03:58:59.935Z,4494.00
2023-04-30T03:59:59.995Z,4666.00
2023-04-30T04:01:00.008Z,4588.00
2023-04-30T04:02:00.094Z,4445.00
2023-04-30T04:03:00.147Z,4444.00
2023-04-30T04:04:00.139Z,4349.00
2023-04-30T04:05:00.151Z,4377.00
2023-04-30T04:06:00.175Z,4462.00
2023-04-30T04:07:00.163Z,4485.00
2023-04-30T04:08:07.780Z,4757.00
2023-04-30T04:09:00.173Z,4464.00
2023-04-30T04:10:00.180Z,4343.00
2023-04-30T04:11:00.172Z,4380.00
2023-04-30T04:12:00.136Z,4381.00
2023-04-30T04:13:00.142Z,4385.00
2023-04-30T04:14:00.159Z,4349.00
2023-04-30T04:15:00.150Z,4451.00
2023-04-30T04:16:00.167Z,4482.00
2023-04-30T04:17:00.133Z,4443.00
2023-04-30T04:18:00.215Z,4548.00
2023-04-30T04:19:00.138Z,4442.00
2023-04-30T04:20:00.128Z,4400.00
2023-04-30T04:21:00.118Z,4345.00
2023-04-30T04:22:00.036Z,4353.00
2023-04-30T04:23:00.068Z,4316.00
2023-04-30T04:24:00.067Z,4336.00
2023-04-30T04:25:00.067Z,4321.00
2023-04-30T04:26:00.040Z,4230.00
2023-04-30T04:27:00.072Z,4380.00
2023-04-30T04:28:00.111Z,4473.00
2023-04-30T04:29:00.065Z,4531.00
2023-04-30T04:29:59.979Z,4394.00
2023-04-30T04:31:00.075Z,4528.00
2023-04-30T04:32:00.111Z,4435.00
2023-04-30T04:33:00.066Z,4232.00
2023-04-30T04:33:59.979Z,4237.00
2023-04-30T04:34:59.995Z,4267.00
2023-04-30T04:36:00.019Z,4289.00
2023-04-30T04:36:59.937Z,4191.00
2023-04-30T04:37:59.964Z,4246.00
2023-04-30T04:39:00.024Z,4227.00
2023-04-30T04:40:00.018Z,4292.00
2023-04-30T04:41:00.016Z,4389.00
2023-04-30T04:42:00.036Z,4290.00
2023-04-30T04:43:00.062Z,4222.00
2023-04-30T04:44:00.057Z,4131.00
2023-04-30T04:45:00.106Z,4070.00
2023-04-30T04:46:00.176Z,4022.00
2023-04-30T04:47:00.165Z,4159.00
2023-04-30T04:48:00.210Z,4274.00
2023-04-30T04:49:00.193Z,4071.00
2023-04-30T04:50:00.193Z,4018.00
2023-04-30T04:51:00.206Z,4251.00
2023-04-30T04:52:00.192Z,4327.00
2023-04-30T04:53:00.239Z,4598.00
2023-04-30T04:54:00.323Z,4460.00
2023-04-30T04:55:00.367Z,4221.00
2023-04-30T04:56:00.379Z,4239.00
2023-04-30T04:57:08.046Z,3979.00
2023-04-30T04:58:00.391Z,3981.00
2023-04-30T04:59:00.374Z,3999.00
2023-04-30T05:00:00.387Z,4051.00
2023-04-30T05:01:00.360Z,4176.00
2023-04-30T05:02:00.420Z,4199.00
2023-04-30T05:03:00.416Z,4236.00
2023-04-30T05:04:00.421Z,4510.00
2023-04-30T05:05:00.352Z,4214.00
2023-04-30T05:06:00.358Z,4004.00
2023-04-30T05:07:00.333Z,4068.00
2023-04-30T05:08:00.327Z,4071.00
2023-04-30T05:09:00.302Z,4087.00
2023-04-30T05:10:00.359Z,4172.00
2023-04-30T05:11:00.279Z,4127.00
2023-04-30T05:12:00.282Z,4179.00
2023-04-30T05:13:00.275Z,4212.00
2023-04-30T05:14:00.643Z,4379.00
2023-04-30T05:15:00.320Z,4116.00
2023-04-30T05:16:00.362Z,4037.00
2023-04-30T05:17:00.339Z,4017.00
2023-04-30T05:18:00.335Z,3803.00
2023-04-30T05:19:01.129Z,3875.00
2023-04-30T05:20:00.240Z,3964.00
2023-04-30T05:21:00.245Z,3949.00
2023-04-30T05:22:00.219Z,3894.00
2023-04-30T05:23:00.201Z,3998.00
2023-04-30T05:24:00.244Z,3822.00
2023-04-30T05:25:00.292Z,3908.00
2023-04-30T05:26:00.299Z,3982.00
2023-04-30T05:27:00.340Z,3955.00
2023-04-30T05:28:00.374Z,3699.00
2023-04-30T05:29:00.317Z,3632.00
2023-04-30T05:30:00.380Z,3694.00
2023-04-30T05:31:00.406Z,4043.00
2023-04-30T05:32:00.452Z,3863.00
2023-04-30T05:33:00.470Z,3989.00
2023-04-30T05:34:00.442Z,3801.00
2023-04-30T05:35:00.447Z,3829.00
2023-04-30T05:36:00.463Z,3658.00
2023-04-30T05:37:00.511Z,3744.00
2023-04-30T05:38:00.490Z,3616.00
2023-04-30T05:39:00.553Z,3655.00
2023-04-30T05:40:00.569Z,3743.00
2023-04-30T05:41:01.058Z,3892.00
2023-04-30T05:42:00.577Z,3795.00
2023-04-30T05:43:00.635Z,4108.00
2023-04-30T05:44:00.649Z,4135.00
2023-04-30T05:45:00.633Z,4184.00
2023-04-30T05:46:00.813Z,3964.00
2023-04-30T05:47:00.716Z,3870.00
2023-04-30T05:48:00.800Z,3977.00
2023-04-30T05:49:00.791Z,3958.00
2023-04-30T05:50:00.860Z,3813.00
2023-04-30T05:51:00.855Z,3952.00
2023-04-30T05:52:00.951Z,3918.00
2023-04-30T05:53:00.981Z,4156.00
2023-04-30T05:54:00.971Z,4127.00
2023-04-30T05:55:01.046Z,3825.00
2023-04-30T05:56:01.109Z,3739.00
2023-04-30T05:57:01.168Z,3934.00
2023-04-30T05:58:01.159Z,3758.00
2023-04-30T05:59:01.209Z,3820.00
2023-04-30T06:00:01.223Z,3753.00
2023-04-30T06:01:01.277Z,3769.00
2023-04-30T06:02:01.326Z,3795.00
2023-04-30T06:03:01.348Z,4092.00
2023-04-30T06:04:01.331Z,4258.00
2023-04-30T06:05:01.415Z,4344.00
2023-04-30T06:06:01.425Z,4229.00
2023-04-30T06:07:01.437Z,3819.00
2023-04-30T06:08:01.477Z,3714.00
2023-04-30T06:09:01.482Z,3514.00
2023-04-30T06:10:01.556Z,3705.00
2023-04-30T06:11:01.595Z,4123.00
2023-04-30T06:12:01.544Z,3908.00
2023-04-30T06:13:01.624Z,3777.00
2023-04-30T06:14:01.595Z,3856.00
2023-04-30T06:15:01.637Z,3943.00
2023-04-30T06:16:01.670Z,3727.00
2023-04-30T06:17:01.748Z,3756.00
2023-04-30T06:18:01.795Z,3685.00
2023-04-30T06:19:01.734Z,3692.00
2023-04-30T06:20:01.785Z,3628.00
2023-04-30T06:21:01.792Z,3876.00
2023-04-30T06:22:01.856Z,3713.00
2023-04-30T06:23:01.861Z,3826.00
2023-04-30T06:24:01.907Z,3811.00
2023-04-30T06:25:01.925Z,3306.00
2023-04-30T06:26:01.948Z,2940.00
2023-04-30T06:27:01.996Z,3133.00
2023-04-30T06:28:01.990Z,2818.00
2023-04-30T06:29:02.026Z,3006.00
2023-04-30T06:30:02.100Z,3212.00
2023-04-30T06:31:02.134Z,3573.00
2023-04-30T06:32:02.120Z,3683.00
2023-04-30T06:33:02.225Z,3939.00
2023-04-30T06:34:02.184Z,4084.00
2023-04-30T06:35:02.268Z,4076.00
2023-04-30T06:36:02.275Z,3948.00
2023-04-30T06:37:02.273Z,3694.00
2023-04-30T06:38:02.368Z,3852.00
2023-04-30T06:39:02.322Z,3712.00
2023-04-30T06:40:02.441Z,3310.00
2023-04-30T06:41:02.394Z,2804.00
2023-04-30T06:42:02.453Z,3099.00
2023-04-30T06:43:02.492Z,3073.00
2023-04-30T06:44:02.520Z,2970.00
2023-04-30T06:45:02.544Z,3237.00
2023-04-30T06:46:02.630Z,3132.00
2023-04-30T06:47:02.610Z,3127.00
2023-04-30T06:48:02.653Z,3256.00
2023-04-30T06:49:02.646Z,2896.00
2023-04-30T06:50:02.681Z,2806.00
2023-04-30T06:51:02.764Z,2870.00
2023-04-30T06:52:02.774Z,2977.00
2023-04-30T06:53:02.774Z,2933.00
2023-04-30T06:54:02.810Z,2947.00
2023-04-30T06:55:02.843Z,3324.00
2023-04-30T06:56:02.842Z,3181.00
2023-04-30T06:57:02.871Z,2865.00
2023-04-30T06:58:02.899Z,2590.00
2023-04-30T06:59:02.936Z,2807.00
2023-04-30T07:00:03.000Z,2759.00
2023-04-30T07:01:03.004Z,2627.00
2023-04-30T07:02:02.991Z,2823.00
2023-04-30T07:03:03.101Z,2850.00
2023-04-30T07:04:03.137Z,3046.00
2023-04-30T07:05:03.199Z,2755.00
2023-04-30T07:06:03.228Z,2772.00
2023-04-30T07:07:03.192Z,2945.00
2023-04-30T07:08:03.229Z,3070.00
2023-04-30T07:09:03.266Z,2876.00
2023-04-30T07:10:03.323Z,2713.00
2023-04-30T07:11:03.350Z,2568.00
2023-04-30T07:12:03.446Z,2667.00
2023-04-30T07:13:03.396Z,3170.00
2023-04-30T07:14:03.441Z,2940.00
2023-04-30T07:15:03.492Z,3069.00
2023-04-30T07:16:03.627Z,2733.00
2023-04-30T07:17:03.544Z,2694.00
2023-04-30T07:18:03.636Z,3037.00
2023-04-30T07:19:03.609Z,3120.00
2023-04-30T07:20:03.669Z,2872.00
2023-04-30T07:21:03.638Z,2965.00
2023-04-30T07:22:03.691Z,3208.00
2023-04-30T07:23:03.725Z,2843.00
2023-04-30T07:24:03.728Z,3129.00
2023-04-30T07:25:03.768Z,3017.00
2023-04-30T07:26:03.812Z,2480.00
2023-04-30T07:27:03.828Z,2300.00
2023-04-30T07:28:03.838Z,2356.00
2023-04-30T07:29:03.890Z,2515.00
2023-04-30T07:30:03.923Z,2685.00
2023-04-30T07:31:03.916Z,2642.00
2023-04-30T07:32:04.008Z,3025.00
2023-04-30T07:33:04.020Z,3031.00
2023-04-30T07:34:04.031Z,3158.00
2023-04-30T07:35:04.081Z,2720.00
2023-04-30T07:36:04.084Z,2282.00
2023-04-30T07:37:04.070Z,2315.00
2023-04-30T07:38:04.135Z,2480.00
2023-04-30T07:39:04.113Z,2516.00
2023-04-30T07:40:04.301Z,2597.00
2023-04-30T07:41:04.180Z,2615.00
2023-04-30T07:42:04.181Z,2736.00
2023-04-30T07:43:04.252Z,2404.00
2023-04-30T07:44:04.254Z,2520.00
2023-04-30T07:45:04.306Z,2893.00
2023-04-30T07:46:04.470Z,2514.00
2023-04-30T07:47:04.302Z,2244.00
2023-04-30T07:48:04.376Z,2182.00
2023-04-30T07:49:04.386Z,2026.00
2023-04-30T07:50:04.437Z,1798.00
2023-04-30T07:51:04.429Z,1965.00
2023-04-30T07:52:04.519Z,2141.00
2023-04-30T07:53:04.510Z,1733.00
2023-04-30T07:54:04.546Z,1841.00
2023-04-30T07:55:04.579Z,1985.00
2023-04-30T07:56:04.583Z,1955.00
2023-04-30T07:57:04.581Z,1377.00
2023-04-30T07:58:04.666Z,1465.00
2023-04-30T07:59:04.668Z,1417.00
2023-04-30T08:00:04.825Z,1514.00
2023-04-30T08:01:04.713Z,1357.00
2023-04-30T08:02:04.828Z,1415.00
2023-04-30T08:03:04.884Z,1674.00
2023-04-30T08:04:04.995Z,1534.00
2023-04-30T08:05:05.016Z,1670.00
2023-04-30T08:06:04.956Z,1741.00
2023-04-30T08:07:05.024Z,1558.00
2023-04-30T08:08:04.982Z,1546.00
2023-04-30T08:09:05.022Z,1464.00
2023-04-30T08:10:05.066Z,1572.00
2023-04-30T08:11:05.111Z,1633.00
2023-04-30T08:12:05.080Z,1659.00
2023-04-30T08:13:05.084Z,1786.00
2023-04-30T08:14:05.124Z,1610.00
2023-04-30T08:15:05.242Z,1747.00
2023-04-30T08:16:05.210Z,1817.00
2023-04-30T08:17:05.286Z,1927.00
2023-04-30T08:18:05.352Z,2042.00
2023-04-30T08:19:05.317Z,2111.00
2023-04-30T08:20:05.346Z,1778.00
2023-04-30T08:21:05.389Z,1727.00
2023-04-30T08:22:05.392Z,1792.00
2023-04-30T08:23:05.451Z,1720.00
2023-04-30T08:24:05.443Z,2262.00
2023-04-30T08:25:05.500Z,3216.00
2023-04-30T08:26:05.506Z,2127.00
2023-04-30T08:27:07.366Z,2066.00
2023-04-30T08:28:05.574Z,1981.00
2023-04-30T08:29:05.640Z,1311.00
2023-04-30T08:30:05.640Z,1613.00
2023-04-30T08:31:05.671Z,1642.00
2023-04-30T08:32:05.845Z,1320.00
2023-04-30T08:33:05.843Z,1497.00
2023-04-30T08:34:05.776Z,2006.00
2023-04-30T08:35:05.843Z,2021.00
2023-04-30T08:36:05.853Z,2443.00
2023-04-30T08:37:05.864Z,2363.00
2023-04-30T08:38:05.891Z,2100.00
2023-04-30T08:39:05.960Z,1987.00
2023-04-30T08:40:06.002Z,1799.00
2023-04-30T08:41:05.985Z,1882.00
2023-04-30T08:42:06.017Z,2072.00
2023-04-30T08:43:06.056Z,2273.00
2023-04-30T08:44:08.375Z,2285.00
2023-04-30T08:45:06.232Z,2148.00
2023-04-30T08:46:06.281Z,2397.00
2023-04-30T08:47:06.292Z,2720.00
2023-04-30T08:48:06.613Z,2862.00
2023-04-30T08:49:06.369Z,2210.00
2023-04-30T08:50:06.378Z,1677.00
2023-04-30T08:51:06.431Z,1707.00
2023-04-30T08:52:06.452Z,1732.00
2023-04-30T08:53:06.459Z,1756.00
2023-04-30T08:54:06.457Z,1266.00
2023-04-30T08:55:06.539Z,1145.00
2023-04-30T08:56:06.547Z,1188.00
2023-04-30T08:57:06.607Z,1293.00
2023-04-30T08:58:06.591Z,1718.00
2023-04-30T08:59:06.629Z,1114.00
2023-04-30T09:00:06.646Z,959.00
2023-04-30T09:01:06.704Z,888.00
2023-04-30T09:02:06.688Z,740.00
2023-04-30T09:03:06.806Z,879.00
2023-04-30T09:04:06.897Z,904.00
2023-04-30T09:05:06.739Z,1523.00
2023-04-30T09:06:06.859Z,1760.00
2023-04-30T09:07:08.147Z,1351.00
2023-04-30T09:08:06.794Z,1659.00
2023-04-30T09:09:06.781Z,1090.00
2023-04-30T09:10:06.792Z,559.00
2023-04-30T09:11:06.774Z,463.00
2023-04-30T09:12:06.774Z,497.00
2023-04-30T09:13:06.781Z,561.00
2023-04-30T09:14:06.755Z,654.00
2023-04-30T09:15:06.777Z,917.00
2023-04-30T09:16:06.779Z,600.00
2023-04-30T09:17:06.724Z,612.00
2023-04-30T09:18:06.841Z,600.00
2023-04-30T09:19:06.783Z,672.00
2023-04-30T09:20:06.818Z,612.00
2023-04-30T09:21:06.714Z,739.00
2023-04-30T09:22:06.730Z,671.00
2023-04-30T09:23:06.726Z,612.00
2023-04-30T09:24:06.719Z,577.00
2023-04-30T09:25:06.697Z,733.00
2023-04-30T09:26:06.668Z,1022.00
2023-04-30T09:27:06.664Z,701.00
2023-04-30T09:28:06.691Z,1065.00
2023-04-30T09:29:06.676Z,935.00
2023-04-30T09:30:06.667Z,890.00
2023-04-30T09:31:06.657Z,703.00
2023-04-30T09:32:06.655Z,629.00
2023-04-30T09:33:08.351Z,587.00
2023-04-30T09:34:06.673Z,431.00
2023-04-30T09:35:06.628Z,400.00
2023-04-30T09:36:06.647Z,400.00
2023-04-30T09:37:06.604Z,400.00
2023-04-30T09:38:06.645Z,525.00
2023-04-30T09:39:08.996Z,1037.00
2023-04-30T09:40:06.578Z,892.00
2023-04-30T09:41:06.580Z,498.00
2023-04-30T09:42:06.569Z,400.00
2023-04-30T09:43:06.548Z,597.00
2023-04-30T09:44:06.556Z,813.00
2023-04-30T09:45:06.551Z,806.00
2023-04-30T09:46:06.604Z,783.00
2023-04-30T09:47:06.640Z,473.00
2023-04-30T09:48:16.509Z,400.00
2023-04-30T09:49:07.506Z,402.00
2023-04-30T09:50:06.557Z,400.00
2023-04-30T09:51:06.547Z,404.00
2023-04-30T09:52:06.492Z,421.00
2023-04-30T09:53:06.506Z,400.00
2023-04-30T09:54:06.555Z,400.00
2023-04-30T09:55:06.510Z,443.00
2023-04-30T09:56:06.445Z,423.00
2023-04-30T09:57:06.466Z,498.00
2023-04-30T09:58:06.496Z,473.00
2023-04-30T09:59:06.467Z,590.00
2023-04-30T10:00:06.441Z,1249.00
2023-04-30T10:01:06.540Z,777.00
2023-04-30T10:02:06.450Z,969.00
2023-04-30T10:03:06.531Z,1228.00
2023-04-30T10:04:06.493Z,1058.00
2023-04-30T10:05:06.490Z,818.00
2023-04-30T10:06:06.576Z,531.00
2023-04-30T10:07:06.568Z,524.00
2023-04-30T10:08:06.555Z,765.00
2023-04-30T10:09:06.648Z,978.00
2023-04-30T10:10:06.682Z,1132.00
2023-04-30T10:11:06.652Z,779.00
2023-04-30T10:12:06.735Z,1070.00
2023-04-30T10:13:07.697Z,1122.00
2023-04-30T10:14:06.786Z,1285.00
2023-04-30T10:15:06.853Z,1310.00
2023-04-30T10:16:06.874Z,1597.00
2023-04-30T10:17:06.909Z,1627.00
2023-04-30T10:18:07.064Z,1590.00
2023-04-30T10:19:06.885Z,1489.00
2023-04-30T10:20:06.953Z,1879.00
2023-04-30T10:21:06.999Z,2280.00
2023-04-30T10:22:06.991Z,1993.00
2023-04-30T10:23:07.065Z,2576.00
2023-04-30T10:24:07.099Z,2367.00
2023-04-30T10:25:07.143Z,1654.00
2023-04-30T10:26:07.162Z,1270.00
2023-04-30T10:27:07.177Z,1003.00
2023-04-30T10:28:07.194Z,901.00
2023-04-30T10:29:07.231Z,654.00
2023-04-30T10:30:07.257Z,599.00
2023-04-30T10:31:07.292Z,654.00
2023-04-30T10:32:07.349Z,415.00
2023-04-30T10:33:07.358Z,523.00
2023-04-30T10:34:07.340Z,400.00
2023-04-30T10:35:07.372Z,506.00
2023-04-30T10:36:07.445Z,584.00
2023-04-30T10:37:07.437Z,552.00
2023-04-30T10:38:07.459Z,570.00
2023-04-30T10:39:07.506Z,500.00
2023-04-30T10:40:07.585Z,552.00
2023-04-30T10:41:07.575Z,898.00
2023-04-30T10:42:07.575Z,523.00
2023-04-30T10:43:07.651Z,873.00
2023-04-30T10:44:07.685Z,748.00
2023-04-30T10:45:07.757Z,580.00
2023-04-30T10:46:07.887Z,557.00
2023-04-30T10:47:07.763Z,659.00
2023-04-30T10:48:07.907Z,1097.00
2023-04-30T10:49:07.862Z,883.00
2023-04-30T10:50:07.911Z,759.00
2023-04-30T10:51:07.962Z,1269.00
2023-04-30T10:52:07.993Z,1379.00
2023-04-30T10:53:08.003Z,1210.00
2023-04-30T10:54:08.068Z,656.00
2023-04-30T10:55:08.078Z,695.00
2023-04-30T10:56:08.153Z,592.00
2023-04-30T10:57:08.163Z,546.00
2023-04-30T10:58:08.193Z,495.00
2023-04-30T10:59:08.244Z,526.00
2023-04-30T11:00:08.244Z,501.00
2023-04-30T11:01:08.388Z,571.00
2023-04-30T11:02:08.265Z,656.00
2023-04-30T11:03:08.407Z,1141.00
2023-04-30T11:04:08.445Z,2013.00
2023-04-30T11:05:08.493Z,1334.00
2023-04-30T11:06:08.518Z,742.00
2023-04-30T11:07:08.474Z,700.00
2023-04-30T11:08:08.502Z,946.00
2023-04-30T11:09:08.584Z,1105.00
2023-04-30T11:10:08.586Z,1022.00
2023-04-30T11:11:08.650Z,908.00
2023-04-30T11:12:08.681Z,703.00
2023-04-30T11:13:08.708Z,1171.00
2023-04-30T11:14:08.749Z,720.00
2023-04-30T11:15:08.788Z,832.00
2023-04-30T11:16:08.816Z,617.00
2023-04-30T11:17:08.810Z,615.00
2023-04-30T11:18:08.889Z,576.00
2023-04-30T11:19:11.343Z,985.00
2023-04-30T11:20:08.874Z,1030.00
2023-04-30T11:21:08.876Z,818.00
2023-04-30T11:22:08.846Z,539.00
2023-04-30T11:23:08.829Z,565.00
2023-04-30T11:24:08.820Z,732.00
2023-04-30T11:25:08.841Z,1015.00
2023-04-30T11:26:08.840Z,561.00
2023-04-30T11:27:08.776Z,513.00
2023-04-30T11:28:08.795Z,477.00
2023-04-30T11:29:08.865Z,499.00
2023-04-30T11:30:08.809Z,461.00
2023-04-30T11:31:08.895Z,510.00
2023-04-30T11:32:08.783Z,549.00
2023-04-30T11:33:08.838Z,617.00
2023-04-30T11:34:08.775Z,581.00
2023-04-30T11:35:08.734Z,540.00
2023-04-30T11:36:08.775Z,551.00
2023-04-30T11:37:08.742Z,623.00
2023-04-30T11:38:08.710Z,632.00
2023-04-30T11:39:08.719Z,637.00
2023-04-30T11:40:08.785Z,625.00
2023-04-30T11:41:08.723Z,597.00
2023-04-30T11:42:08.706Z,915.00
2023-04-30T11:43:08.722Z,958.00
2023-04-30T11:44:08.686Z,746.00
2023-04-30T11:45:08.691Z,1025.00
2023-04-30T11:46:08.745Z,873.00
2023-04-30T11:47:08.814Z,1845.00
2023-04-30T11:48:08.702Z,1729.00
2023-04-30T11:49:08.694Z,1593.00
2023-04-30T11:50:08.716Z,879.00
2023-04-30T11:51:08.679Z,577.00
2023-04-30T11:52:08.657Z,678.00
2023-04-30T11:53:08.607Z,588.00
2023-04-30T11:54:08.637Z,521.00
2023-04-30T11:55:08.624Z,478.00
2023-04-30T11:56:08.649Z,466.00
2023-04-30T11:57:08.626Z,515.00
2023-04-30T11:58:08.597Z,816.00
2023-04-30T11:59:08.604Z,560.00
2023-04-30T12:00:08.650Z,415.00
2023-04-30T12:01:08.592Z,559.00
2023-04-30T12:02:08.824Z,598.00
2023-04-30T12:03:08.731Z,461.00
2023-04-30T12:04:08.645Z,531.00
2023-04-30T12:05:08.590Z,577.00
2023-04-30T12:06:08.600Z,578.00
2023-04-30T12:07:08.554Z,574.00
2023-04-30T12:08:08.522Z,1069.00
2023-04-30T12:09:08.513Z,562.00
2023-04-30T12:10:08.553Z,556.00
2023-04-30T12:11:08.505Z,495.00